sensor_id;sensor_type;location;lat;lon;timestamp;pressure;altitude;pressure_sealevel;temperature;humidity
9189;BME280;34313;50.780;6.084;2022-08-24T00:02:09;99659.16;;;20.59;65.03
9189;BME280;34313;50.780;6.084;2022-08-24T00:04:35;99653.53;;;20.52;65.15
9189;BME280;34313;50.780;6.084;2022-08-24T00:07:02;99653.53;;;20.52;65.23
9189;BME280;34313;50.780;6.084;2022-08-24T00:09:29;99652.84;;;20.50;65.26
9189;BME280;34313;50.780;6.084;2022-08-24T00:11:54;99653.00;;;20.49;65.25
9189;BME280;34313;50.780;6.084;2022-08-24T00:14:20;99651.47;;;20.46;65.36
9189;BME280;34313;50.780;6.084;2022-08-24T00:16:46;99657.66;;;20.47;65.41
9189;BME280;34313;50.780;6.084;2022-08-24T00:19:11;99663.03;;;20.47;65.35
9189;BME280;34313;50.780;6.084;2022-08-24T00:21:37;99654.44;;;20.43;65.56
9189;BME280;34313;50.780;6.084;2022-08-24T00:24:03;99655.75;;;20.39;65.78
9189;BME280;34313;50.780;6.084;2022-08-24T00:26:29;99666.28;;;20.40;65.83
9189;BME280;34313;50.780;6.084;2022-08-24T00:28:56;99662.91;;;20.38;65.83
9189;BME280;34313;50.780;6.084;2022-08-24T00:31:21;99666.88;;;20.34;66.05
9189;BME280;34313;50.780;6.084;2022-08-24T00:33:47;99668.00;;;20.32;66.21
9189;BME280;34313;50.780;6.084;2022-08-24T00:36:12;99662.13;;;20.28;66.47
9189;BME280;34313;50.780;6.084;2022-08-24T00:38:38;99660.38;;;20.37;66.33
9189;BME280;34313;50.780;6.084;2022-08-24T00:41:04;99673.63;;;20.38;66.01
9189;BME280;34313;50.780;6.084;2022-08-24T00:43:31;99664.22;;;20.34;66.09
9189;BME280;34313;50.780;6.084;2022-08-24T00:46:20;99665.34;;;20.32;66.13
9189;BME280;34313;50.780;6.084;2022-08-24T00:48:50;99669.59;;;20.25;66.40
9189;BME280;34313;50.780;6.084;2022-08-24T00:51:25;99669.44;;;20.26;66.58
9189;BME280;34313;50.780;6.084;2022-08-24T00:53:57;99655.66;;;20.21;66.57
9189;BME280;34313;50.780;6.084;2022-08-24T00:56:31;99659.34;;;20.20;66.61
9189;BME280;34313;50.780;6.084;2022-08-24T00:59:15;99657.66;;;20.19;66.73
9189;BME280;34313;50.780;6.084;2022-08-24T01:01:43;99662.06;;;20.10;66.86
9189;BME280;34313;50.780;6.084;2022-08-24T01:04:12;99657.53;;;20.11;66.98
9189;BME280;34313;50.780;6.084;2022-08-24T01:06:40;99658.97;;;20.05;67.10
9189;BME280;34313;50.780;6.084;2022-08-24T01:09:06;99660.41;;;19.99;67.18
9189;BME280;34313;50.780;6.084;2022-08-24T01:11:32;99654.66;;;19.94;67.32
9189;BME280;34313;50.780;6.084;2022-08-24T01:13:58;99646.78;;;19.93;67.61
9189;BME280;34313;50.780;6.084;2022-08-24T01:16:24;99656.22;;;19.87;67.71
9189;BME280;34313;50.780;6.084;2022-08-24T01:19:37;99661.44;;;19.89;67.77
9189;BME280;34313;50.780;6.084;2022-08-24T01:24:50;99656.09;;;19.79;68.05
9189;BME280;34313;50.780;6.084;2022-08-24T01:27:17;99653.16;;;19.82;68.37
9189;BME280;34313;50.780;6.084;2022-08-24T01:29:43;99659.78;;;19.78;68.53
9189;BME280;34313;50.780;6.084;2022-08-24T01:32:10;99661.59;;;19.77;68.53
9189;BME280;34313;50.780;6.084;2022-08-24T01:34:36;99658.38;;;19.74;68.53
9189;BME280;34313;50.780;6.084;2022-08-24T01:37:02;99661.19;;;19.72;68.55
9189;BME280;34313;50.780;6.084;2022-08-24T01:39:35;99667.63;;;19.70;68.60
9189;BME280;34313;50.780;6.084;2022-08-24T01:42:02;99665.25;;;19.67;68.21
9189;BME280;34313;50.780;6.084;2022-08-24T01:44:29;99662.72;;;19.65;68.27
9189;BME280;34313;50.780;6.084;2022-08-24T01:46:55;99664.84;;;19.61;68.53
9189;BME280;34313;50.780;6.084;2022-08-24T01:49:27;99662.16;;;19.61;68.87
9189;BME280;34313;50.780;6.084;2022-08-24T01:51:53;99663.31;;;19.59;69.01
9189;BME280;34313;50.780;6.084;2022-08-24T01:54:18;99659.78;;;19.58;69.38
9189;BME280;34313;50.780;6.084;2022-08-24T01:56:44;99664.13;;;19.59;69.27
9189;BME280;34313;50.780;6.084;2022-08-24T01:59:10;99664.13;;;19.59;69.29
9189;BME280;34313;50.780;6.084;2022-08-24T02:01:39;99667.66;;;19.60;69.49
9189;BME280;34313;50.780;6.084;2022-08-24T02:04:07;99669.94;;;19.55;69.68
9189;BME280;34313;50.780;6.084;2022-08-24T02:06:33;99665.69;;;19.52;69.58
9189;BME280;34313;50.780;6.084;2022-08-24T02:08:59;99669.22;;;19.53;69.77
9189;BME280;34313;50.780;6.084;2022-08-24T02:11:25;99666.84;;;19.50;70.03
9189;BME280;34313;50.780;6.084;2022-08-24T02:13:50;99668.66;;;19.49;70.04
9189;BME280;34313;50.780;6.084;2022-08-24T02:16:16;99666.28;;;19.46;69.95
9189;BME280;34313;50.780;6.084;2022-08-24T02:18:42;99667.13;;;19.46;70.05
9189;BME280;34313;50.780;6.084;2022-08-24T02:21:09;99666.44;;;19.44;70.21
9189;BME280;34313;50.780;6.084;2022-08-24T02:23:35;99662.19;;;19.42;70.51
9189;BME280;34313;50.780;6.084;2022-08-24T02:26:03;99661.50;;;19.40;70.47
9189;BME280;34313;50.780;6.084;2022-08-24T02:28:29;99656.75;;;19.34;70.08
9189;BME280;34313;50.780;6.084;2022-08-24T02:30:55;99661.06;;;19.35;69.66
9189;BME280;34313;50.780;6.084;2022-08-24T02:33:21;99664.16;;;19.40;69.87
9189;BME280;34313;50.780;6.084;2022-08-24T02:35:48;99662.91;;;19.34;70.16
9189;BME280;34313;50.780;6.084;2022-08-24T02:38:13;99672.78;;;19.34;70.34
9189;BME280;34313;50.780;6.084;2022-08-24T02:40:39;99662.34;;;19.31;70.54
9189;BME280;34313;50.780;6.084;2022-08-24T02:43:04;99663.47;;;19.28;70.65
9189;BME280;34313;50.780;6.084;2022-08-24T02:45:30;99661.38;;;19.22;71.02
9189;BME280;34313;50.780;6.084;2022-08-24T02:47:56;99669.38;;;19.22;70.91
9189;BME280;34313;50.780;6.084;2022-08-24T02:50:23;99673.72;;;19.23;70.85
9189;BME280;34313;50.780;6.084;2022-08-24T02:52:50;99675.97;;;19.18;70.68
9189;BME280;34313;50.780;6.084;2022-08-24T02:55:17;99668.84;;;19.18;70.67
9189;BME280;34313;50.780;6.084;2022-08-24T02:57:43;99668.53;;;19.12;70.77
9189;BME280;34313;50.780;6.084;2022-08-24T03:00:11;99672.03;;;19.12;70.65
9189;BME280;34313;50.780;6.084;2022-08-24T03:02:38;99669.66;;;19.09;70.72
9189;BME280;34313;50.780;6.084;2022-08-24T03:05:05;99667.41;;;19.04;70.92
9189;BME280;34313;50.780;6.084;2022-08-24T03:07:30;99667.97;;;18.98;71.06
9189;BME280;34313;50.780;6.084;2022-08-24T03:09:56;99667.25;;;18.96;70.93
9189;BME280;34313;50.780;6.084;2022-08-24T03:12:21;99656.84;;;18.93;71.20
9189;BME280;34313;50.780;6.084;2022-08-24T03:14:46;99661.09;;;18.96;71.36
9189;BME280;34313;50.780;6.084;2022-08-24T03:17:12;99662.06;;;18.95;71.69
9189;BME280;34313;50.780;6.084;2022-08-24T03:19:38;99660.38;;;18.94;71.43
9189;BME280;34313;50.780;6.084;2022-08-24T03:22:04;99662.75;;;18.87;71.64
9189;BME280;34313;50.780;6.084;2022-08-24T03:24:29;99666.97;;;18.89;71.46
9189;BME280;34313;50.780;6.084;2022-08-24T03:26:55;99668.41;;;18.94;71.49
9189;BME280;34313;50.780;6.084;2022-08-24T03:29:20;99659.97;;;18.88;71.23
9189;BME280;34313;50.780;6.084;2022-08-24T03:31:46;99662.63;;;18.88;71.27
9189;BME280;34313;50.780;6.084;2022-08-24T03:34:12;99657.28;;;18.88;71.33
9189;BME280;34313;50.780;6.084;2022-08-24T03:36:39;99661.63;;;18.89;71.62
9189;BME280;34313;50.780;6.084;2022-08-24T03:39:06;99655.84;;;18.84;71.83
9189;BME280;34313;50.780;6.084;2022-08-24T03:41:32;99655.16;;;18.82;71.78
9189;BME280;34313;50.780;6.084;2022-08-24T03:43:57;99660.03;;;18.77;71.95
9189;BME280;34313;50.780;6.084;2022-08-24T03:46:26;99653.84;;;18.77;72.15
9189;BME280;34313;50.780;6.084;2022-08-24T03:48:54;99661.31;;;18.73;72.20
9189;BME280;34313;50.780;6.084;2022-08-24T03:51:22;99654.25;;;18.72;72.23
9189;BME280;34313;50.780;6.084;2022-08-24T03:53:49;99656.50;;;18.67;72.28
9189;BME280;34313;50.780;6.084;2022-08-24T03:56:15;99659.47;;;18.64;72.25
9189;BME280;34313;50.780;6.084;2022-08-24T03:58:43;99661.13;;;18.65;72.25
9189;BME280;34313;50.780;6.084;2022-08-24T04:01:09;99653.81;;;18.57;72.53
9189;BME280;34313;50.780;6.084;2022-08-24T04:03:36;99661.69;;;18.59;72.44
9189;BME280;34313;50.780;6.084;2022-08-24T04:06:03;99663.94;;;18.54;72.65
9189;BME280;34313;50.780;6.084;2022-08-24T04:08:29;99661.66;;;18.49;72.86
9189;BME280;34313;50.780;6.084;2022-08-24T04:10:55;99663.38;;;18.50;72.85
9189;BME280;34313;50.780;6.084;2022-08-24T04:13:20;99665.34;;;18.48;73.19
9189;BME280;34313;50.780;6.084;2022-08-24T04:15:46;99672.06;;;18.52;73.08
9189;BME280;34313;50.780;6.084;2022-08-24T04:18:14;99662.94;;;18.45;73.13
9189;BME280;34313;50.780;6.084;2022-08-24T04:20:41;99674.88;;;18.50;73.34
9189;BME280;34313;50.780;6.084;2022-08-24T04:23:08;99667.00;;;18.49;73.22
9189;BME280;34313;50.780;6.084;2022-08-24T04:25:45;99672.91;;;18.52;73.18
9189;BME280;34313;50.780;6.084;2022-08-24T04:28:14;99675.84;;;18.49;73.26
9189;BME280;34313;50.780;6.084;2022-08-24T04:30:41;99677.00;;;18.57;72.88
9189;BME280;34313;50.780;6.084;2022-08-24T04:33:11;99668.72;;;18.60;72.55
9189;BME280;34313;50.780;6.084;2022-08-24T04:35:42;99672.25;;;18.60;72.24
9189;BME280;34313;50.780;6.084;2022-08-24T04:38:09;99669.72;;;18.59;72.29
9189;BME280;34313;50.780;6.084;2022-08-24T04:40:38;99670.16;;;18.64;72.01
9189;BME280;34313;50.780;6.084;2022-08-24T04:43:03;99678.16;;;18.64;72.01
9189;BME280;34313;50.780;6.084;2022-08-24T04:45:29;99675.63;;;18.62;71.94
9189;BME280;34313;50.780;6.084;2022-08-24T04:47:54;99684.19;;;18.66;71.92
9189;BME280;34313;50.780;6.084;2022-08-24T04:50:20;99677.84;;;18.67;71.80
9189;BME280;34313;50.780;6.084;2022-08-24T04:52:45;99670.97;;;18.64;71.86
9189;BME280;34313;50.780;6.084;2022-08-24T04:55:11;99681.81;;;18.73;71.80
9189;BME280;34313;50.780;6.084;2022-08-24T04:57:36;99689.97;;;18.81;71.61
9189;BME280;34313;50.780;6.084;2022-08-24T05:00:04;99679.22;;;18.92;71.50
9189;BME280;34313;50.780;6.084;2022-08-24T05:02:30;99686.38;;;19.01;70.61
9189;BME280;34313;50.780;6.084;2022-08-24T05:04:56;99677.13;;;19.15;70.55
9189;BME280;34313;50.780;6.084;2022-08-24T05:07:22;99686.69;;;19.27;70.25
9189;BME280;34313;50.780;6.084;2022-08-24T05:09:48;99688.00;;;20.00;69.39
9189;BME280;34313;50.780;6.084;2022-08-24T05:12:14;99682.59;;;21.57;65.68
9189;BME280;34313;50.780;6.084;2022-08-24T05:14:39;99682.31;;;23.38;60.06
9189;BME280;34313;50.780;6.084;2022-08-24T05:17:05;99680.13;;;25.10;54.56
9189;BME280;34313;50.780;6.084;2022-08-24T05:19:30;99679.66;;;26.65;49.33
9189;BME280;34313;50.780;6.084;2022-08-24T05:21:56;99676.56;;;27.98;45.35
9189;BME280;34313;50.780;6.084;2022-08-24T05:24:21;99690.25;;;29.21;42.73
9189;BME280;34313;50.780;6.084;2022-08-24T05:26:47;99688.13;;;30.37;40.33
9189;BME280;34313;50.780;6.084;2022-08-24T05:29:12;99689.00;;;31.46;37.83
9189;BME280;34313;50.780;6.084;2022-08-24T05:31:42;99687.00;;;32.47;34.89
9189;BME280;34313;50.780;6.084;2022-08-24T05:34:09;99694.56;;;33.12;33.61
9189;BME280;34313;50.780;6.084;2022-08-24T05:36:36;99689.00;;;33.97;32.24
9189;BME280;34313;50.780;6.084;2022-08-24T05:39:05;99695.63;;;34.89;30.90
9189;BME280;34313;50.780;6.084;2022-08-24T05:41:31;99692.84;;;35.63;29.42
9189;BME280;34313;50.780;6.084;2022-08-24T05:43:57;99693.38;;;35.99;28.56
9189;BME280;34313;50.780;6.084;2022-08-24T05:46:23;99691.06;;;36.47;28.13
9189;BME280;34313;50.780;6.084;2022-08-24T05:48:48;99687.88;;;37.09;27.27
9189;BME280;34313;50.780;6.084;2022-08-24T05:51:14;99695.06;;;37.70;26.22
9189;BME280;34313;50.780;6.084;2022-08-24T05:53:39;99701.69;;;38.12;25.64
9189;BME280;34313;50.780;6.084;2022-08-24T05:56:09;99688.56;;;38.29;24.87
9189;BME280;34313;50.780;6.084;2022-08-24T05:58:35;99696.13;;;37.09;26.39
9189;BME280;34313;50.780;6.084;2022-08-24T06:01:23;99694.63;;;35.24;28.13
9189;BME280;34313;50.780;6.084;2022-08-24T06:03:50;99697.84;;;33.03;31.31
9189;BME280;34313;50.780;6.084;2022-08-24T06:06:17;99695.88;;;30.20;36.15
9189;BME280;34313;50.780;6.084;2022-08-24T06:08:45;99697.88;;;28.97;38.29
9189;BME280;34313;50.780;6.084;2022-08-24T06:11:19;99696.63;;;28.03;40.29
9189;BME280;34313;50.780;6.084;2022-08-24T06:13:50;99700.03;;;27.41;41.86
9189;BME280;34313;50.780;6.084;2022-08-24T06:16:16;99705.03;;;27.01;43.24
9189;BME280;34313;50.780;6.084;2022-08-24T06:18:41;99700.75;;;26.25;44.75
9189;BME280;34313;50.780;6.084;2022-08-24T06:21:09;99705.38;;;26.01;46.00
9189;BME280;34313;50.780;6.084;2022-08-24T06:23:36;99706.38;;;25.62;46.95
9189;BME280;34313;50.780;6.084;2022-08-24T06:26:03;99711.94;;;25.46;47.24
9189;BME280;34313;50.780;6.084;2022-08-24T06:28:47;99719.66;;;25.26;48.00
9189;BME280;34313;50.780;6.084;2022-08-24T06:31:12;99712.47;;;25.10;48.51
9189;BME280;34313;50.780;6.084;2022-08-24T06:33:38;99708.00;;;25.02;48.77
9189;BME280;34313;50.780;6.084;2022-08-24T06:36:03;99710.88;;;25.01;49.00
9189;BME280;34313;50.780;6.084;2022-08-24T06:38:28;99715.28;;;24.94;49.19
9189;BME280;34313;50.780;6.084;2022-08-24T06:40:55;99719.16;;;24.91;49.64
9189;BME280;34313;50.780;6.084;2022-08-24T06:43:20;99707.25;;;24.85;50.09
9189;BME280;34313;50.780;6.084;2022-08-24T06:45:46;99713.84;;;24.83;50.20
9189;BME280;34313;50.780;6.084;2022-08-24T06:48:12;99713.59;;;24.92;50.10
9189;BME280;34313;50.780;6.084;2022-08-24T06:50:38;99722.31;;;25.03;49.87
9189;BME280;34313;50.780;6.084;2022-08-24T06:53:04;99716.22;;;25.09;49.63
9189;BME280;34313;50.780;6.084;2022-08-24T06:55:29;99712.63;;;25.17;49.46
9189;BME280;34313;50.780;6.084;2022-08-24T06:57:55;99711.44;;;25.19;49.39
9189;BME280;34313;50.780;6.084;2022-08-24T07:00:21;99706.66;;;25.29;49.25
9189;BME280;34313;50.780;6.084;2022-08-24T07:02:46;99715.91;;;25.35;49.31
9189;BME280;34313;50.780;6.084;2022-08-24T07:05:12;99714.50;;;25.39;48.96
9189;BME280;34313;50.780;6.084;2022-08-24T07:07:38;99712.13;;;25.44;48.85
9189;BME280;34313;50.780;6.084;2022-08-24T07:10:04;99722.94;;;25.59;49.90
9189;BME280;34313;50.780;6.084;2022-08-24T07:12:30;99728.44;;;25.51;49.72
9189;BME280;34313;50.780;6.084;2022-08-24T07:14:56;99726.84;;;25.57;50.27
9189;BME280;34313;50.780;6.084;2022-08-24T07:17:21;99726.03;;;25.56;50.20
9189;BME280;34313;50.780;6.084;2022-08-24T07:19:47;99726.59;;;25.66;49.71
9189;BME280;34313;50.780;6.084;2022-08-24T07:22:12;99725.19;;;25.94;48.32
9189;BME280;34313;50.780;6.084;2022-08-24T07:24:38;99731.44;;;26.98;45.97
9189;BME280;34313;50.780;6.084;2022-08-24T07:27:04;99721.63;;;27.56;44.75
9189;BME280;34313;50.780;6.084;2022-08-24T07:29:30;99727.66;;;28.36;42.48
9189;BME280;34313;50.780;6.084;2022-08-24T07:31:56;99737.31;;;28.87;40.55
9189;BME280;34313;50.780;6.084;2022-08-24T07:34:21;99729.16;;;28.45;41.29
9189;BME280;34313;50.780;6.084;2022-08-24T07:36:47;99730.00;;;28.10;42.22
9189;BME280;34313;50.780;6.084;2022-08-24T07:39:14;99740.22;;;27.87;42.72
9189;BME280;34313;50.780;6.084;2022-08-24T07:41:42;99740.75;;;27.76;42.66
9189;BME280;34313;50.780;6.084;2022-08-24T07:44:09;99736.31;;;27.46;42.86
9189;BME280;34313;50.780;6.084;2022-08-24T07:46:34;99732.50;;;27.62;43.04
9189;BME280;34313;50.780;6.084;2022-08-24T07:49:00;99742.53;;;27.25;43.30
9189;BME280;34313;50.780;6.084;2022-08-24T07:51:25;99742.50;;;27.62;42.49
9189;BME280;34313;50.780;6.084;2022-08-24T07:53:51;99741.63;;;29.36;39.94
9189;BME280;34313;50.780;6.084;2022-08-24T07:56:17;99738.97;;;33.38;32.28
9189;BME280;34313;50.780;6.084;2022-08-24T07:58:42;99735.84;;;36.97;26.92
9189;BME280;34313;50.780;6.084;2022-08-24T08:01:08;99747.75;;;38.90;23.51
9189;BME280;34313;50.780;6.084;2022-08-24T08:03:34;99749.25;;;39.90;22.02
9189;BME280;34313;50.780;6.084;2022-08-24T08:06:04;99756.09;;;40.44;21.30
9189;BME280;34313;50.780;6.084;2022-08-24T08:08:30;99745.94;;;39.78;21.86
9189;BME280;34313;50.780;6.084;2022-08-24T08:10:57;99747.63;;;39.68;21.40
9189;BME280;34313;50.780;6.084;2022-08-24T08:13:22;99741.47;;;40.23;20.34
9189;BME280;34313;50.780;6.084;2022-08-24T08:15:48;99749.22;;;41.01;20.26
9189;BME280;34313;50.780;6.084;2022-08-24T08:18:14;99755.72;;;41.26;19.70
9189;BME280;34313;50.780;6.084;2022-08-24T08:20:41;99760.34;;;40.86;19.53
9189;BME280;34313;50.780;6.084;2022-08-24T08:23:07;99756.25;;;41.63;18.84
9189;BME280;34313;50.780;6.084;2022-08-24T08:25:53;99756.47;;;42.97;17.89
9189;BME280;34313;50.780;6.084;2022-08-24T08:28:21;99757.41;;;42.93;17.66
9189;BME280;34313;50.780;6.084;2022-08-24T08:30:47;99748.06;;;43.59;17.43
9189;BME280;34313;50.780;6.084;2022-08-24T08:33:13;99756.34;;;44.25;16.65
9189;BME280;34313;50.780;6.084;2022-08-24T08:35:39;99751.72;;;44.48;16.49
9189;BME280;34313;50.780;6.084;2022-08-24T08:38:06;99751.31;;;43.48;16.81
9189;BME280;34313;50.780;6.084;2022-08-24T08:40:59;99757.13;;;42.70;17.83
9189;BME280;34313;50.780;6.084;2022-08-24T08:49:05;99747.81;;;42.12;18.05
9189;BME280;34313;50.780;6.084;2022-08-24T08:59:50;99734.78;;;43.04;16.98
9189;BME280;34313;50.780;6.084;2022-08-24T09:05:22;99745.06;;;42.07;17.40
9189;BME280;34313;50.780;6.084;2022-08-24T09:21:40;99738.63;;;37.83;21.87
9189;BME280;34313;50.780;6.084;2022-08-24T09:35:00;99739.19;;;35.19;25.19
9189;BME280;34313;50.780;6.084;2022-08-24T09:40:16;99728.31;;;35.87;24.59
9189;BME280;34313;50.780;6.084;2022-08-24T09:45:33;99731.59;;;35.09;25.71
9189;BME280;34313;50.780;6.084;2022-08-24T09:48:59;99728.69;;;34.46;26.96
9189;BME280;34313;50.780;6.084;2022-08-24T09:54:23;99724.91;;;33.88;28.00
9189;BME280;34313;50.780;6.084;2022-08-24T10:03:01;99711.97;;;34.19;27.52
9189;BME280;34313;50.780;6.084;2022-08-24T10:05:41;99714.25;;;33.33;28.58
9189;BME280;34313;50.780;6.084;2022-08-24T10:11:04;99716.34;;;33.01;29.46
9189;BME280;34313;50.780;6.084;2022-08-24T10:14:02;99723.03;;;33.47;28.82
9189;BME280;34313;50.780;6.084;2022-08-24T10:17:08;99706.09;;;33.14;28.93
9189;BME280;34313;50.780;6.084;2022-08-24T10:19:47;99707.06;;;33.98;27.78
9189;BME280;34313;50.780;6.084;2022-08-24T10:22:27;99704.00;;;33.82;28.09
9189;BME280;34313;50.780;6.084;2022-08-24T10:25:02;99693.63;;;34.08;27.47
9189;BME280;34313;50.780;6.084;2022-08-24T10:27:40;99689.72;;;34.04;27.25
9189;BME280;34313;50.780;6.084;2022-08-24T10:33:27;99695.78;;;34.30;26.63
9189;BME280;34313;50.780;6.084;2022-08-24T10:41:57;99694.97;;;32.97;28.77
9189;BME280;34313;50.780;6.084;2022-08-24T10:44:57;99699.59;;;33.15;28.76
9189;BME280;34313;50.780;6.084;2022-08-24T10:47:34;99694.78;;;33.11;28.61
9189;BME280;34313;50.780;6.084;2022-08-24T10:55:36;99681.88;;;33.18;29.00
9189;BME280;34313;50.780;6.084;2022-08-24T11:00:49;99681.66;;;32.89;28.88
9189;BME280;34313;50.780;6.084;2022-08-24T11:03:17;99672.72;;;33.12;28.98
9189;BME280;34313;50.780;6.084;2022-08-24T11:05:51;99682.34;;;33.15;29.44
9189;BME280;34313;50.780;6.084;2022-08-24T11:08:23;99674.53;;;33.19;29.38
9189;BME280;34313;50.780;6.084;2022-08-24T11:11:10;99678.00;;;32.95;29.81
9189;BME280;34313;50.780;6.084;2022-08-24T11:13:52;99674.72;;;33.05;29.34
9189;BME280;34313;50.780;6.084;2022-08-24T11:16:31;99675.03;;;32.67;29.34
9189;BME280;34313;50.780;6.084;2022-08-24T11:18:59;99674.69;;;32.75;29.53
9189;BME280;34313;50.780;6.084;2022-08-24T11:21:41;99670.75;;;32.89;29.19
9189;BME280;34313;50.780;6.084;2022-08-24T11:27:16;99665.53;;;32.69;29.75
9189;BME280;34313;50.780;6.084;2022-08-24T11:38:13;99652.56;;;31.91;30.75
9189;BME280;34313;50.780;6.084;2022-08-24T11:40:42;99647.19;;;31.84;30.91
9189;BME280;34313;50.780;6.084;2022-08-24T11:56:44;99643.09;;;31.75;30.75
9189;BME280;34313;50.780;6.084;2022-08-24T11:59:35;99643.56;;;31.40;31.27
9189;BME280;34313;50.780;6.084;2022-08-24T12:02:08;99636.53;;;31.57;31.06
9189;BME280;34313;50.780;6.084;2022-08-24T12:10:25;99635.56;;;31.45;30.66
9189;BME280;34313;50.780;6.084;2022-08-24T12:13:02;99632.78;;;31.58;30.64
9189;BME280;34313;50.780;6.084;2022-08-24T12:18:25;99617.63;;;32.25;30.03
9189;BME280;34313;50.780;6.084;2022-08-24T12:20:53;99616.84;;;31.99;29.97
9189;BME280;34313;50.780;6.084;2022-08-24T12:28:48;99616.03;;;32.17;29.33
9189;BME280;34313;50.780;6.084;2022-08-24T12:31:15;99626.84;;;32.42;29.04
9189;BME280;34313;50.780;6.084;2022-08-24T12:33:51;99625.44;;;32.21;29.18
9189;BME280;34313;50.780;6.084;2022-08-24T12:36:29;99623.53;;;32.40;28.90
9189;BME280;34313;50.780;6.084;2022-08-24T12:39:18;99624.13;;;32.23;29.25
9189;BME280;34313;50.780;6.084;2022-08-24T12:44:53;99617.94;;;32.16;29.02
9189;BME280;34313;50.780;6.084;2022-08-24T12:47:54;99611.38;;;32.36;28.94
9189;BME280;34313;50.780;6.084;2022-08-24T12:58:53;99612.03;;;33.10;28.27
9189;BME280;34313;50.780;6.084;2022-08-24T13:01:22;99614.88;;;33.04;28.08
9189;BME280;34313;50.780;6.084;2022-08-24T13:04:02;99611.31;;;33.03;27.71
9189;BME280;34313;50.780;6.084;2022-08-24T13:07:38;99610.56;;;32.96;27.85
9189;BME280;34313;50.780;6.084;2022-08-24T13:09:47;99606.00;;;32.78;28.19
9189;BME280;34313;50.780;6.084;2022-08-24T13:15:26;99610.63;;;32.47;28.59
9189;BME280;34313;50.780;6.084;2022-08-24T13:41:11;99602.13;;;32.86;27.92
9189;BME280;34313;50.780;6.084;2022-08-24T14:11:08;99566.41;;;34.46;25.73
9189;BME280;34313;50.780;6.084;2022-08-24T14:14:09;99568.91;;;34.19;25.81
9189;BME280;34313;50.780;6.084;2022-08-24T14:17:10;99564.47;;;34.18;25.35
9189;BME280;34313;50.780;6.084;2022-08-24T14:22:32;99559.22;;;34.57;25.20
9189;BME280;34313;50.780;6.084;2022-08-24T14:25:17;99552.50;;;34.19;25.77
9189;BME280;34313;50.780;6.084;2022-08-24T14:30:35;99567.59;;;33.98;25.89
9189;BME280;34313;50.780;6.084;2022-08-24T14:33:26;99562.66;;;33.95;26.11
9189;BME280;34313;50.780;6.084;2022-08-24T14:36:14;99561.94;;;33.64;26.33
9189;BME280;34313;50.780;6.084;2022-08-24T14:39:05;99567.56;;;33.33;26.31
9189;BME280;34313;50.780;6.084;2022-08-24T14:41:48;99565.72;;;33.04;26.91
9189;BME280;34313;50.780;6.084;2022-08-24T14:44:23;99568.25;;;32.75;27.01
9189;BME280;34313;50.780;6.084;2022-08-24T14:55:44;99542.56;;;33.06;26.83
9189;BME280;34313;50.780;6.084;2022-08-24T14:58:31;99546.97;;;33.07;26.87
9189;BME280;34313;50.780;6.084;2022-08-24T15:01:37;99546.13;;;32.95;26.77
9189;BME280;34313;50.780;6.084;2022-08-24T15:06:55;99544.22;;;32.95;26.25
9189;BME280;34313;50.780;6.084;2022-08-24T15:09:34;99535.19;;;32.83;26.26
9189;BME280;34313;50.780;6.084;2022-08-24T15:12:19;99537.75;;;32.66;26.41
9189;BME280;34313;50.780;6.084;2022-08-24T15:14:54;99524.22;;;32.71;26.53
9189;BME280;34313;50.780;6.084;2022-08-24T15:17:28;99530.66;;;32.77;26.59
9189;BME280;34313;50.780;6.084;2022-08-24T15:22:29;99538.91;;;33.36;26.08
9189;BME280;34313;50.780;6.084;2022-08-24T15:25:10;99529.03;;;33.00;25.77
9189;BME280;34313;50.780;6.084;2022-08-24T15:27:52;99527.47;;;32.92;25.73
9189;BME280;34313;50.780;6.084;2022-08-24T15:30:28;99523.22;;;32.84;26.16
9189;BME280;34313;50.780;6.084;2022-08-24T15:35:34;99515.34;;;32.76;26.15
9189;BME280;34313;50.780;6.084;2022-08-24T15:38:30;99515.13;;;32.77;25.93
9189;BME280;34313;50.780;6.084;2022-08-24T15:41:04;99514.66;;;33.04;25.81
9189;BME280;34313;50.780;6.084;2022-08-24T15:43:31;99507.41;;;33.10;25.55
9189;BME280;34313;50.780;6.084;2022-08-24T15:45:57;99506.75;;;33.14;25.69
9189;BME280;34313;50.780;6.084;2022-08-24T15:48:23;99504.72;;;33.22;25.25
9189;BME280;34313;50.780;6.084;2022-08-24T15:50:51;99504.09;;;32.96;25.29
9189;BME280;34313;50.780;6.084;2022-08-24T15:56:01;99511.59;;;33.01;25.41
9189;BME280;34313;50.780;6.084;2022-08-24T15:58:44;99503.75;;;33.04;25.32
9189;BME280;34313;50.780;6.084;2022-08-24T16:03:56;99500.09;;;33.10;25.17
9189;BME280;34313;50.780;6.084;2022-08-24T16:11:48;99501.84;;;32.93;25.42
9189;BME280;34313;50.780;6.084;2022-08-24T16:14:30;99506.91;;;32.66;25.44
9189;BME280;34313;50.780;6.084;2022-08-24T16:16:59;99510.06;;;32.51;25.68
9189;BME280;34313;50.780;6.084;2022-08-24T16:19:33;99502.47;;;32.53;25.89
9189;BME280;34313;50.780;6.084;2022-08-24T16:22:05;99507.56;;;32.49;25.91
9189;BME280;34313;50.780;6.084;2022-08-24T16:24:39;99503.22;;;32.60;25.83
9189;BME280;34313;50.780;6.084;2022-08-24T16:27:08;99500.41;;;32.67;25.92
9189;BME280;34313;50.780;6.084;2022-08-24T16:32:18;99497.06;;;32.76;25.71
9189;BME280;34313;50.780;6.084;2022-08-24T16:34:48;99493.88;;;32.79;25.58
9189;BME280;34313;50.780;6.084;2022-08-24T16:37:16;99490.66;;;32.71;25.12
9189;BME280;34313;50.780;6.084;2022-08-24T16:39:44;99500.97;;;32.69;25.14
9189;BME280;34313;50.780;6.084;2022-08-24T16:42:34;99487.13;;;32.70;25.02
9189;BME280;34313;50.780;6.084;2022-08-24T16:44:59;99499.44;;;32.61;25.04
9189;BME280;34313;50.780;6.084;2022-08-24T16:47:26;99499.50;;;32.54;25.38
9189;BME280;34313;50.780;6.084;2022-08-24T16:49:52;99501.00;;;32.38;25.61
9189;BME280;34313;50.780;6.084;2022-08-24T16:52:18;99501.19;;;32.25;25.75
9189;BME280;34313;50.780;6.084;2022-08-24T16:54:44;99496.84;;;32.36;25.82
9189;BME280;34313;50.780;6.084;2022-08-24T16:57:21;99501.00;;;32.38;25.44
9189;BME280;34313;50.780;6.084;2022-08-24T16:59:49;99498.81;;;32.29;25.99
9189;BME280;34313;50.780;6.084;2022-08-24T17:02:16;99502.66;;;32.09;25.95
9189;BME280;34313;50.780;6.084;2022-08-24T17:04:43;99499.41;;;32.19;26.16
9189;BME280;34313;50.780;6.084;2022-08-24T17:07:11;99495.81;;;32.18;26.35